Mount Uniacke, Canada
Current Conditions -  °F | °C
As of 8:45 AM on Thursday 23 Oct 2014 (Local Time) from CYHZ Reporting Station
Rain Showers Rain Showers  
Wind Chill: 52°   Ceiling: 800
Heat Index: 52°   Visibility: 15mi
Dew Point: 48°   Wind: 15mph
Humidity: 88%   Direction: 70°ENE
Pressure: 30.06"   Gusts: 25mph
Location:  44.88°N, 63.83°W
Report Text: CYHZ 231145Z 07013G22KT 15SM -SHRA BKN008 OVC016 11/09 A3006 RMK SF6SC2 SLP181
Loading
Personal Weather Stations






























Interactive Weather Map
Tropical Storm Tracking
New forecast layout! Learn more

10-Day Weather Forecast

Advertisements
Track Severe Weather on mobile